PTI737 NZAA-WMKK
Flight info
| Callsign | PTI737 |
|---|---|
| Flight time | N/A |
| Altitude | 34000 |
| Route | UPLAR A464 SCOTT J208 BN V129 EML T13 NTN J138 NOKUN J61 IKUMA A464 KIKEM M774 JUNHA DCT IRTAD A464 SJ G579 VJB A457 GUPTA GUPTA3J |
| Aircraft | B737/M-SDE2E3FGHIRWXY/LB1 |
Departure
| Time | N/A |
|---|---|
| Airport | Auckland International Airport (NZAA) |
Arrival
| Time | 2026-05-01 11:35 |
|---|---|
| Airport | Kuala Lumpur International Airport (WMKK) |
| Time | Latitude | Longitude | Altitude | Speed | Heading |
|---|---|---|---|---|---|
| 2026-05-01 07:23 | -12.31372 | 130.69553 | 33887 ft | 458 kts | 297° |
| 2026-05-01 07:24 | -12.26888 | 130.60925 | 33887 ft | 458 kts | 297° |
| 2026-05-01 07:24 | -12.23894 | 130.55164 | 33891 ft | 459 kts | 297° |
| 2026-05-01 07:25 | -12.20894 | 130.49397 | 33887 ft | 460 kts | 297° |
| 2026-05-01 07:25 | -12.17889 | 130.43627 | 33894 ft | 460 kts | 297° |
| 2026-05-01 07:26 | -12.14882 | 130.37856 | 33894 ft | 460 kts | 297° |
| 2026-05-01 07:26 | -12.11875 | 130.32089 | 33889 ft | 460 kts | 297° |
| 2026-05-01 07:27 | -12.08866 | 130.26322 | 33894 ft | 460 kts | 297° |
| 2026-05-01 07:27 | -12.05858 | 130.20560 | 33880 ft | 460 kts | 297° |
| 2026-05-01 07:28 | -12.02865 | 130.14829 | 33885 ft | 461 kts | 297° |
| 2026-05-01 07:28 | -11.99847 | 130.09054 | 33891 ft | 461 kts | 297° |
| 2026-05-01 07:29 | -11.96823 | 130.03273 | 33890 ft | 461 kts | 297° |
| 2026-05-01 07:29 | -11.93799 | 129.97493 | 33892 ft | 462 kts | 297° |
| 2026-05-01 07:30 | -11.90771 | 129.91711 | 33892 ft | 461 kts | 297° |
| 2026-05-01 07:30 | -11.87747 | 129.85938 | 33894 ft | 461 kts | 297° |
| 2026-05-01 07:31 | -11.84721 | 129.80166 | 33892 ft | 461 kts | 297° |
| 2026-05-01 07:32 | -11.77132 | 129.65705 | 33897 ft | 463 kts | 297° |
| 2026-05-01 07:33 | -11.72565 | 129.57015 | 33893 ft | 463 kts | 297° |
| 2026-05-01 07:33 | -11.67998 | 129.48330 | 33891 ft | 463 kts | 297° |
| 2026-05-01 07:34 | -11.63432 | 129.39654 | 33894 ft | 463 kts | 297° |
| 2026-05-01 07:35 | -11.60385 | 129.33868 | 33891 ft | 463 kts | 297° |
| 2026-05-01 07:35 | -11.57334 | 129.28078 | 33897 ft | 464 kts | 297° |
| 2026-05-01 07:36 | -11.54281 | 129.22288 | 33897 ft | 464 kts | 297° |
| 2026-05-01 07:36 | -11.51225 | 129.16495 | 33896 ft | 464 kts | 297° |
| 2026-05-01 07:37 | -11.46637 | 129.07806 | 33895 ft | 464 kts | 297° |
| 2026-05-01 07:37 | -11.43580 | 129.02019 | 33892 ft | 463 kts | 297° |
| 2026-05-01 07:38 | -11.40523 | 128.96237 | 33898 ft | 463 kts | 297° |
| 2026-05-01 07:39 | -11.35941 | 128.87576 | 33899 ft | 463 kts | 297° |
| 2026-05-01 07:39 | -11.31359 | 128.78923 | 33897 ft | 462 kts | 297° |
| 2026-05-01 07:40 | -11.28308 | 128.73163 | 33895 ft | 462 kts | 297° |
| 2026-05-01 07:40 | -11.25256 | 128.67406 | 33896 ft | 462 kts | 297° |
| 2026-05-01 07:41 | -11.22202 | 128.61651 | 33897 ft | 461 kts | 297° |
| 2026-05-01 07:42 | -11.18136 | 128.53999 | 33887 ft | 462 kts | 298° |
| 2026-05-01 07:42 | -11.15078 | 128.48244 | 33899 ft | 463 kts | 298° |
| 2026-05-01 07:43 | -11.12011 | 128.42476 | 33896 ft | 463 kts | 298° |
| 2026-05-01 07:43 | -11.07406 | 128.33821 | 33896 ft | 464 kts | 298° |
| 2026-05-01 07:44 | -11.01257 | 128.22273 | 33896 ft | 464 kts | 298° |
| 2026-05-01 07:45 | -10.98181 | 128.16502 | 33900 ft | 464 kts | 298° |
| 2026-05-01 07:45 | -10.95102 | 128.10729 | 33890 ft | 464 kts | 298° |
| 2026-05-01 07:46 | -10.92020 | 128.04952 | 33900 ft | 465 kts | 298° |
| 2026-05-01 07:47 | -10.87387 | 127.96276 | 33893 ft | 466 kts | 298° |
| 2026-05-01 07:47 | -10.84294 | 127.90487 | 33897 ft | 466 kts | 298° |
| 2026-05-01 07:48 | -10.79651 | 127.81804 | 33897 ft | 466 kts | 298° |
| 2026-05-01 07:48 | -10.76552 | 127.76013 | 33895 ft | 466 kts | 298° |
| 2026-05-01 07:49 | -10.71906 | 127.67336 | 33893 ft | 466 kts | 298° |
| 2026-05-01 07:50 | -10.68800 | 127.61538 | 33896 ft | 467 kts | 298° |
| 2026-05-01 07:50 | -10.64129 | 127.52827 | 33894 ft | 468 kts | 298° |
| 2026-05-01 07:51 | -10.61010 | 127.47013 | 33893 ft | 468 kts | 298° |
| 2026-05-01 07:52 | -10.56333 | 127.38302 | 33898 ft | 468 kts | 298° |
| 2026-05-01 07:52 | -10.53214 | 127.32496 | 33895 ft | 468 kts | 298° |
| 2026-05-01 07:53 | -10.48537 | 127.23796 | 33891 ft | 468 kts | 298° |
| 2026-05-01 07:53 | -10.45419 | 127.17996 | 33901 ft | 468 kts | 298° |
| 2026-05-01 07:55 | -10.37611 | 127.03515 | 33896 ft | 467 kts | 298° |
| 2026-05-01 07:56 | -10.29778 | 126.89008 | 33894 ft | 469 kts | 298° |
| 2026-05-01 07:57 | -10.25075 | 126.80305 | 33895 ft | 468 kts | 298° |
| 2026-05-01 07:58 | -10.18830 | 126.68761 | 33894 ft | 466 kts | 298° |
| 2026-05-01 07:59 | -10.12604 | 126.57264 | 33894 ft | 467 kts | 298° |
| 2026-05-01 08:00 | -10.03190 | 126.39900 | 33888 ft | 468 kts | 298° |
| 2026-05-01 08:01 | -9.96900 | 126.28313 | 33887 ft | 470 kts | 298° |
| 2026-05-01 08:02 | -9.92159 | 126.19584 | 33894 ft | 472 kts | 298° |
| 2026-05-01 08:03 | -9.87436 | 126.10822 | 33889 ft | 472 kts | 296° |
| 2026-05-01 08:03 | -9.83159 | 126.01824 | 33891 ft | 472 kts | 295° |
| 2026-05-01 08:04 | -9.77517 | 125.89801 | 33881 ft | 472 kts | 295° |
| 2026-05-01 08:05 | -9.73239 | 125.80802 | 33889 ft | 472 kts | 295° |
| 2026-05-01 08:06 | -9.68955 | 125.71802 | 33885 ft | 473 kts | 295° |
| 2026-05-01 08:07 | -9.63240 | 125.59801 | 33884 ft | 472 kts | 295° |
| 2026-05-01 08:08 | -9.58957 | 125.50813 | 33886 ft | 472 kts | 295° |
| 2026-05-01 08:09 | -9.53239 | 125.38829 | 33894 ft | 473 kts | 295° |
| 2026-05-01 08:09 | -9.50376 | 125.32830 | 33899 ft | 473 kts | 295° |
| 2026-05-01 08:10 | -9.44649 | 125.20843 | 33905 ft | 471 kts | 295° |
| 2026-05-01 08:11 | -9.38932 | 125.08891 | 33910 ft | 471 kts | 295° |
| 2026-05-01 08:12 | -9.34638 | 124.99927 | 33897 ft | 472 kts | 295° |
| 2026-05-01 08:13 | -9.30330 | 124.90937 | 33898 ft | 474 kts | 295° |
| 2026-05-01 08:13 | -9.26002 | 124.81911 | 33888 ft | 476 kts | 295° |
| 2026-05-01 08:14 | -9.23111 | 124.75885 | 33887 ft | 476 kts | 295° |
| 2026-05-01 08:14 | -9.20214 | 124.69850 | 33880 ft | 477 kts | 295° |
| 2026-05-01 08:15 | -9.15865 | 124.60798 | 33883 ft | 476 kts | 295° |
| 2026-05-01 08:16 | -9.12968 | 124.54770 | 33878 ft | 476 kts | 295° |
| 2026-05-01 08:16 | -9.10069 | 124.48742 | 33870 ft | 476 kts | 295° |
| 2026-05-01 08:17 | -9.07172 | 124.42721 | 33869 ft | 476 kts | 295° |
| 2026-05-01 08:17 | -9.04274 | 124.36701 | 33864 ft | 475 kts | 295° |
| 2026-05-01 08:18 | -9.01379 | 124.30692 | 33859 ft | 475 kts | 295° |
| 2026-05-01 08:19 | -8.95598 | 124.18698 | 33857 ft | 474 kts | 295° |
| 2026-05-01 08:19 | -8.92711 | 124.12712 | 33853 ft | 473 kts | 295° |
| 2026-05-01 08:20 | -8.89826 | 124.06734 | 33851 ft | 473 kts | 295° |
| 2026-05-01 08:20 | -8.86939 | 124.00754 | 33859 ft | 473 kts | 295° |
| 2026-05-01 08:21 | -8.84053 | 123.94778 | 33848 ft | 473 kts | 295° |
| 2026-05-01 08:21 | -8.81161 | 123.88794 | 33863 ft | 474 kts | 295° |
| 2026-05-01 08:22 | -8.78281 | 123.82839 | 33854 ft | 475 kts | 295° |
| 2026-05-01 08:22 | -8.75380 | 123.76842 | 33860 ft | 475 kts | 295° |
| 2026-05-01 08:23 | -8.72475 | 123.70840 | 33860 ft | 475 kts | 295° |
| 2026-05-01 08:23 | -8.69567 | 123.64833 | 33861 ft | 476 kts | 295° |
| 2026-05-01 08:24 | -8.66657 | 123.58826 | 33859 ft | 476 kts | 295° |
| 2026-05-01 08:24 | -8.63747 | 123.52824 | 33860 ft | 476 kts | 295° |
| 2026-05-01 08:25 | -8.60835 | 123.46818 | 33858 ft | 475 kts | 295° |
| 2026-05-01 08:25 | -8.58417 | 123.41833 | 33864 ft | 475 kts | 295° |
| 2026-05-01 08:26 | -8.55505 | 123.35833 | 33866 ft | 475 kts | 295° |
| 2026-05-01 08:26 | -8.52592 | 123.29835 | 33863 ft | 475 kts | 295° |
| 2026-05-01 08:27 | -8.49685 | 123.23852 | 33867 ft | 474 kts | 295° |
| 2026-05-01 08:27 | -8.46780 | 123.17873 | 33860 ft | 474 kts | 295° |
| 2026-05-01 08:28 | -8.43874 | 123.11897 | 33870 ft | 474 kts | 295° |
| 2026-05-01 08:28 | -8.40966 | 123.05919 | 33865 ft | 474 kts | 295° |
| 2026-05-01 08:29 | -8.38056 | 122.99941 | 33867 ft | 474 kts | 296° |
| 2026-05-01 08:29 | -8.35145 | 122.93961 | 33862 ft | 474 kts | 295° |
| 2026-05-01 08:30 | -8.32232 | 122.87983 | 33856 ft | 474 kts | 295° |
| 2026-05-01 08:30 | -8.29328 | 122.82024 | 33861 ft | 472 kts | 295° |
| 2026-05-01 08:31 | -8.26425 | 122.76069 | 33855 ft | 473 kts | 296° |
| 2026-05-01 08:31 | -8.23519 | 122.70111 | 33863 ft | 473 kts | 296° |
| 2026-05-01 08:32 | -8.20606 | 122.64143 | 33861 ft | 474 kts | 296° |
| 2026-05-01 08:32 | -8.17691 | 122.58171 | 33857 ft | 475 kts | 296° |
| 2026-05-01 08:33 | -8.14772 | 122.52197 | 33852 ft | 475 kts | 296° |
| 2026-05-01 08:33 | -8.11852 | 122.46221 | 33853 ft | 475 kts | 296° |
| 2026-05-01 08:34 | -8.08931 | 122.40246 | 33855 ft | 475 kts | 296° |
| 2026-05-01 08:34 | -8.06009 | 122.34271 | 33854 ft | 475 kts | 296° |
| 2026-05-01 08:35 | -8.03086 | 122.28298 | 33851 ft | 475 kts | 296° |
| 2026-05-01 08:35 | -8.00163 | 122.22327 | 33850 ft | 475 kts | 296° |
| 2026-05-01 08:36 | -7.97238 | 122.16355 | 33853 ft | 475 kts | 296° |
| 2026-05-01 08:36 | -7.94310 | 122.10379 | 33852 ft | 475 kts | 296° |
| 2026-05-01 08:37 | -7.91381 | 122.04404 | 33854 ft | 475 kts | 296° |
| 2026-05-01 08:37 | -7.88453 | 121.98433 | 33851 ft | 475 kts | 296° |
| 2026-05-01 08:38 | -7.85525 | 121.92464 | 33853 ft | 475 kts | 296° |
| 2026-05-01 08:38 | -7.82596 | 121.86496 | 33853 ft | 475 kts | 296° |
| 2026-05-01 08:39 | -7.79665 | 121.80528 | 33848 ft | 475 kts | 296° |
| 2026-05-01 08:39 | -7.76739 | 121.74570 | 33854 ft | 474 kts | 296° |
| 2026-05-01 08:40 | -7.72355 | 121.65651 | 33849 ft | 473 kts | 296° |
| 2026-05-01 08:40 | -7.69429 | 121.59701 | 33851 ft | 473 kts | 296° |
| 2026-05-01 08:41 | -7.66506 | 121.53759 | 33853 ft | 473 kts | 296° |
| 2026-05-01 08:41 | -7.63584 | 121.47821 | 33852 ft | 473 kts | 296° |
| 2026-05-01 08:42 | -7.60661 | 121.41885 | 33848 ft | 473 kts | 296° |
| 2026-05-01 08:42 | -7.57733 | 121.35939 | 33852 ft | 474 kts | 296° |
| 2026-05-01 08:43 | -7.54804 | 121.29997 | 33858 ft | 473 kts | 296° |
| 2026-05-01 08:43 | -7.51875 | 121.24054 | 33849 ft | 473 kts | 296° |
| 2026-05-01 08:44 | -7.48962 | 121.18148 | 33855 ft | 473 kts | 296° |
| 2026-05-01 08:44 | -7.46031 | 121.12207 | 33849 ft | 474 kts | 296° |
| 2026-05-01 08:45 | -7.43093 | 121.06253 | 33862 ft | 475 kts | 296° |
| 2026-05-01 08:45 | -7.40150 | 121.00293 | 33861 ft | 475 kts | 296° |
| 2026-05-01 08:46 | -7.37203 | 120.94327 | 33862 ft | 476 kts | 296° |
| 2026-05-01 08:46 | -7.34253 | 120.88356 | 33863 ft | 476 kts | 296° |
| 2026-05-01 08:47 | -7.31306 | 120.82396 | 33860 ft | 475 kts | 296° |
| 2026-05-01 08:47 | -7.28361 | 120.76441 | 33858 ft | 475 kts | 296° |
| 2026-05-01 08:48 | -7.25416 | 120.70488 | 33861 ft | 475 kts | 296° |
| 2026-05-01 08:48 | -7.22469 | 120.64535 | 33862 ft | 475 kts | 296° |
| 2026-05-01 08:49 | -7.19522 | 120.58581 | 33862 ft | 475 kts | 296° |
| 2026-05-01 08:49 | -7.16576 | 120.52633 | 33862 ft | 474 kts | 296° |
| 2026-05-01 08:50 | -7.13633 | 120.46695 | 33866 ft | 474 kts | 296° |
| 2026-05-01 08:50 | -7.10687 | 120.40752 | 33866 ft | 475 kts | 296° |
| 2026-05-01 08:51 | -7.07741 | 120.34810 | 33867 ft | 474 kts | 296° |
| 2026-05-01 08:51 | -7.04792 | 120.28865 | 33862 ft | 475 kts | 296° |
| 2026-05-01 08:52 | -7.01838 | 120.22914 | 33867 ft | 475 kts | 296° |
| 2026-05-01 08:52 | -6.98886 | 120.16966 | 33866 ft | 475 kts | 296° |
| 2026-05-01 08:53 | -6.95936 | 120.11025 | 33868 ft | 475 kts | 296° |
| 2026-05-01 08:53 | -6.92983 | 120.05080 | 33867 ft | 475 kts | 296° |
| 2026-05-01 08:54 | -6.90023 | 119.99139 | 33868 ft | 475 kts | 296° |
| 2026-05-01 08:54 | -6.87052 | 119.93203 | 33871 ft | 475 kts | 296° |
| 2026-05-01 08:55 | -6.84078 | 119.87263 | 33870 ft | 475 kts | 296° |
| 2026-05-01 08:55 | -6.81102 | 119.81318 | 33865 ft | 475 kts | 296° |
| 2026-05-01 08:56 | -6.78128 | 119.75375 | 33869 ft | 475 kts | 296° |
| 2026-05-01 08:56 | -6.75157 | 119.69441 | 33869 ft | 475 kts | 296° |
| 2026-05-01 08:57 | -6.72185 | 119.63506 | 33868 ft | 475 kts | 296° |
| 2026-05-01 08:57 | -6.69231 | 119.57612 | 33869 ft | 475 kts | 296° |
| 2026-05-01 08:58 | -6.66256 | 119.51676 | 33868 ft | 475 kts | 296° |
| 2026-05-01 08:58 | -6.63281 | 119.45743 | 33870 ft | 475 kts | 296° |
| 2026-05-01 08:59 | -6.60305 | 119.39808 | 33860 ft | 475 kts | 296° |
| 2026-05-01 08:59 | -6.57324 | 119.33868 | 33868 ft | 476 kts | 296° |
| 2026-05-01 09:00 | -6.54342 | 119.27926 | 33871 ft | 476 kts | 296° |
| 2026-05-01 09:00 | -6.51358 | 119.21983 | 33868 ft | 477 kts | 296° |
| 2026-05-01 09:01 | -6.48367 | 119.16029 | 33875 ft | 477 kts | 296° |
| 2026-05-01 09:01 | -6.45372 | 119.10068 | 33869 ft | 478 kts | 296° |
| 2026-05-01 09:02 | -6.42374 | 119.04103 | 33869 ft | 478 kts | 296° |
| 2026-05-01 09:02 | -6.39375 | 118.98139 | 33869 ft | 478 kts | 296° |
| 2026-05-01 09:03 | -6.36371 | 118.92167 | 33865 ft | 479 kts | 296° |
| 2026-05-01 09:03 | -6.33357 | 118.86177 | 33872 ft | 480 kts | 296° |
| 2026-05-01 09:04 | -6.30339 | 118.80180 | 33868 ft | 481 kts | 296° |
| 2026-05-01 09:04 | -6.27314 | 118.74173 | 33868 ft | 481 kts | 296° |
| 2026-05-01 09:05 | -6.24289 | 118.68167 | 33862 ft | 482 kts | 296° |
| 2026-05-01 09:05 | -6.21260 | 118.62155 | 33862 ft | 483 kts | 296° |
| 2026-05-01 09:06 | -6.18225 | 118.56133 | 33867 ft | 484 kts | 296° |
| 2026-05-01 09:06 | -6.15184 | 118.50102 | 33865 ft | 484 kts | 296° |
| 2026-05-01 09:07 | -6.12138 | 118.44063 | 33860 ft | 485 kts | 296° |
| 2026-05-01 09:07 | -6.09087 | 118.38017 | 33863 ft | 485 kts | 296° |
| 2026-05-01 09:08 | -6.06036 | 118.31971 | 33864 ft | 485 kts | 296° |
| 2026-05-01 09:08 | -6.02980 | 118.25917 | 33863 ft | 486 kts | 296° |
| 2026-05-01 09:09 | -6.00439 | 118.20885 | 33862 ft | 486 kts | 296° |
| 2026-05-01 09:09 | -5.97376 | 118.14823 | 33864 ft | 487 kts | 296° |
| 2026-05-01 09:10 | -5.94312 | 118.08759 | 33865 ft | 487 kts | 296° |
| 2026-05-01 09:10 | -5.91243 | 118.02689 | 33859 ft | 487 kts | 296° |
| 2026-05-01 09:11 | -5.88173 | 117.96618 | 33866 ft | 488 kts | 296° |
| 2026-05-01 09:11 | -5.85096 | 117.90535 | 33862 ft | 488 kts | 296° |
| 2026-05-01 09:12 | -5.82020 | 117.84456 | 33863 ft | 488 kts | 296° |
| 2026-05-01 09:12 | -5.78943 | 117.78377 | 33860 ft | 488 kts | 296° |
| 2026-05-01 09:13 | -5.75864 | 117.72295 | 33860 ft | 488 kts | 296° |
| 2026-05-01 09:13 | -5.72787 | 117.66219 | 33860 ft | 488 kts | 296° |
| 2026-05-01 09:14 | -5.69707 | 117.60140 | 33862 ft | 488 kts | 296° |
| 2026-05-01 09:14 | -5.66626 | 117.54062 | 33860 ft | 489 kts | 296° |
| 2026-05-01 09:15 | -5.63542 | 117.47978 | 33860 ft | 489 kts | 296° |
| 2026-05-01 09:15 | -5.60477 | 117.41933 | 33859 ft | 490 kts | 296° |
| 2026-05-01 09:16 | -5.57389 | 117.35845 | 33862 ft | 490 kts | 296° |
| 2026-05-01 09:17 | -5.52741 | 117.26687 | 33861 ft | 491 kts | 296° |
| 2026-05-01 09:17 | -5.48087 | 117.17520 | 33860 ft | 491 kts | 296° |
| 2026-05-01 09:18 | -5.43428 | 117.08347 | 33863 ft | 492 kts | 296° |
| 2026-05-01 09:19 | -5.38762 | 116.99166 | 33856 ft | 491 kts | 297° |
| 2026-05-01 09:20 | -5.34108 | 116.90012 | 33858 ft | 490 kts | 297° |
| 2026-05-01 09:21 | -5.27899 | 116.77803 | 33862 ft | 492 kts | 297° |
| 2026-05-01 09:21 | -5.23220 | 116.68610 | 33858 ft | 494 kts | 297° |
| 2026-05-01 09:22 | -5.16970 | 116.56335 | 33855 ft | 494 kts | 297° |
| 2026-05-01 09:23 | -5.12306 | 116.47178 | 33847 ft | 489 kts | 297° |
| 2026-05-01 09:24 | -5.07678 | 116.38099 | 33848 ft | 485 kts | 297° |
| 2026-05-01 09:25 | -5.01544 | 116.26068 | 33859 ft | 484 kts | 297° |
| 2026-05-01 09:26 | -4.96947 | 116.17056 | 33848 ft | 484 kts | 297° |
| 2026-05-01 09:26 | -4.92349 | 116.08047 | 33849 ft | 484 kts | 297° |
| 2026-05-01 09:27 | -4.87749 | 115.99037 | 33851 ft | 484 kts | 297° |
| 2026-05-01 09:28 | -4.84679 | 115.93026 | 33847 ft | 485 kts | 297° |
| 2026-05-01 09:28 | -4.81604 | 115.87006 | 33851 ft | 485 kts | 297° |
| 2026-05-01 09:29 | -4.76998 | 115.77992 | 33849 ft | 487 kts | 298° |
| 2026-05-01 09:30 | -4.72351 | 115.68903 | 33852 ft | 489 kts | 298° |
| 2026-05-01 09:30 | -4.67692 | 115.59792 | 33848 ft | 490 kts | 297° |
| 2026-05-01 09:31 | -4.64583 | 115.53715 | 33851 ft | 490 kts | 297° |
| 2026-05-01 09:32 | -4.59912 | 115.44587 | 33849 ft | 490 kts | 297° |
| 2026-05-01 09:32 | -4.55242 | 115.35465 | 33849 ft | 490 kts | 297° |
| 2026-05-01 09:33 | -4.52130 | 115.29387 | 33853 ft | 490 kts | 298° |
| 2026-05-01 09:34 | -4.47472 | 115.20292 | 33843 ft | 489 kts | 298° |
| 2026-05-01 09:34 | -4.42796 | 115.11168 | 33852 ft | 492 kts | 298° |
| 2026-05-01 09:35 | -4.38099 | 115.02004 | 33847 ft | 493 kts | 298° |
| 2026-05-01 09:36 | -4.34964 | 114.95887 | 33844 ft | 493 kts | 298° |
| 2026-05-01 09:36 | -4.31865 | 114.89751 | 33843 ft | 493 kts | 297° |
| 2026-05-01 09:37 | -4.28844 | 114.83584 | 33843 ft | 493 kts | 296° |
| 2026-05-01 09:37 | -4.24319 | 114.74333 | 33844 ft | 493 kts | 297° |
| 2026-05-01 09:38 | -4.19776 | 114.65098 | 33845 ft | 493 kts | 297° |
| 2026-05-01 09:39 | -4.15232 | 114.55872 | 33844 ft | 493 kts | 297° |
| 2026-05-01 09:39 | -4.12194 | 114.49706 | 33847 ft | 494 kts | 297° |
| 2026-05-01 09:40 | -4.07628 | 114.40439 | 33844 ft | 495 kts | 297° |
| 2026-05-01 09:41 | -4.04580 | 114.34256 | 33841 ft | 495 kts | 297° |
| 2026-05-01 09:41 | -4.00010 | 114.24986 | 33838 ft | 495 kts | 297° |
| 2026-05-01 09:42 | -3.96963 | 114.18806 | 33838 ft | 495 kts | 297° |
| 2026-05-01 09:43 | -3.90871 | 114.06457 | 33838 ft | 494 kts | 296° |
| 2026-05-01 09:43 | -3.87828 | 114.00291 | 33841 ft | 494 kts | 296° |
| 2026-05-01 09:44 | -3.83269 | 113.91056 | 33845 ft | 493 kts | 297° |
| 2026-05-01 09:45 | -3.80227 | 113.84892 | 33840 ft | 494 kts | 297° |
| 2026-05-01 09:45 | -3.75645 | 113.75616 | 33837 ft | 496 kts | 297° |
| 2026-05-01 09:46 | -3.72597 | 113.69445 | 33830 ft | 492 kts | 297° |
| 2026-05-01 09:46 | -3.69575 | 113.63329 | 33832 ft | 488 kts | 297° |
| 2026-05-01 09:47 | -3.66568 | 113.57245 | 33839 ft | 486 kts | 297° |
| 2026-05-01 09:47 | -3.63573 | 113.51185 | 33838 ft | 485 kts | 297° |
| 2026-05-01 09:48 | -3.60577 | 113.45127 | 33838 ft | 485 kts | 297° |
| 2026-05-01 09:48 | -3.57582 | 113.39071 | 33839 ft | 485 kts | 296° |
| 2026-05-01 09:49 | -3.54587 | 113.33015 | 33836 ft | 486 kts | 297° |
| 2026-05-01 09:49 | -3.51587 | 113.26950 | 33843 ft | 486 kts | 296° |
| 2026-05-01 09:50 | -3.48586 | 113.20884 | 33834 ft | 487 kts | 297° |
| 2026-05-01 09:50 | -3.45580 | 113.14812 | 33844 ft | 487 kts | 297° |
| 2026-05-01 09:51 | -3.42569 | 113.08730 | 33835 ft | 487 kts | 297° |
| 2026-05-01 09:51 | -3.40069 | 113.03679 | 33835 ft | 487 kts | 297° |
| 2026-05-01 09:52 | -3.36550 | 112.96573 | 33838 ft | 488 kts | 297° |
| 2026-05-01 09:52 | -3.33538 | 112.90492 | 33834 ft | 488 kts | 297° |
| 2026-05-01 09:53 | -3.31034 | 112.85436 | 33834 ft | 488 kts | 297° |
| 2026-05-01 09:53 | -3.28018 | 112.79348 | 33838 ft | 489 kts | 297° |
| 2026-05-01 09:54 | -3.24999 | 112.73257 | 33835 ft | 488 kts | 296° |
| 2026-05-01 09:54 | -3.21984 | 112.67172 | 33828 ft | 488 kts | 296° |
| 2026-05-01 09:55 | -3.18969 | 112.61090 | 33836 ft | 488 kts | 296° |
| 2026-05-01 09:55 | -3.15957 | 112.55015 | 33830 ft | 487 kts | 296° |
| 2026-05-01 09:56 | -3.12947 | 112.48944 | 33836 ft | 487 kts | 296° |
| 2026-05-01 09:56 | -3.09936 | 112.42871 | 33826 ft | 488 kts | 296° |
| 2026-05-01 09:57 | -3.06917 | 112.36783 | 33840 ft | 489 kts | 296° |
| 2026-05-01 09:57 | -3.03889 | 112.30680 | 33836 ft | 490 kts | 296° |
| 2026-05-01 09:58 | -3.00778 | 112.24607 | 33833 ft | 491 kts | 297° |
| 2026-05-01 09:58 | -2.97610 | 112.18546 | 33833 ft | 492 kts | 297° |
| 2026-05-01 09:59 | -2.94453 | 112.12486 | 33825 ft | 491 kts | 297° |
| 2026-05-01 09:59 | -2.91306 | 112.06420 | 33828 ft | 491 kts | 297° |
| 2026-05-01 10:00 | -2.88164 | 112.00357 | 33833 ft | 491 kts | 297° |
| 2026-05-01 10:00 | -2.85020 | 111.94292 | 33833 ft | 491 kts | 297° |
| 2026-05-01 10:01 | -2.81875 | 111.88226 | 33832 ft | 491 kts | 298° |
| 2026-05-01 10:01 | -2.78731 | 111.82165 | 33829 ft | 491 kts | 298° |
| 2026-05-01 10:02 | -2.75592 | 111.76112 | 33825 ft | 490 kts | 297° |
| 2026-05-01 10:02 | -2.72450 | 111.70056 | 33822 ft | 491 kts | 298° |
| 2026-05-01 10:03 | -2.68975 | 111.64179 | 33834 ft | 491 kts | 303° |
| 2026-05-01 10:03 | -2.65170 | 111.58496 | 33829 ft | 492 kts | 304° |
| 2026-05-01 10:04 | -2.61355 | 111.52800 | 33827 ft | 492 kts | 304° |
| 2026-05-01 10:04 | -2.57590 | 111.47079 | 33828 ft | 493 kts | 303° |
| 2026-05-01 10:05 | -2.53842 | 111.41340 | 33825 ft | 493 kts | 303° |
| 2026-05-01 10:05 | -2.50095 | 111.35600 | 33824 ft | 493 kts | 303° |
| 2026-05-01 10:06 | -2.46347 | 111.29865 | 33826 ft | 493 kts | 304° |
| 2026-05-01 10:06 | -2.42595 | 111.24127 | 33828 ft | 493 kts | 304° |
| 2026-05-01 10:07 | -2.38845 | 111.18394 | 33824 ft | 493 kts | 304° |
| 2026-05-01 10:07 | -2.35096 | 111.12661 | 33825 ft | 493 kts | 304° |
| 2026-05-01 10:08 | -2.29471 | 111.04061 | 33824 ft | 492 kts | 304° |
| 2026-05-01 10:09 | -2.25722 | 110.98328 | 33827 ft | 492 kts | 304° |
| 2026-05-01 10:09 | -2.21967 | 110.92603 | 33827 ft | 492 kts | 304° |
| 2026-05-01 10:10 | -2.18195 | 110.86889 | 33825 ft | 492 kts | 304° |
| 2026-05-01 10:10 | -2.12540 | 110.78320 | 33832 ft | 491 kts | 304° |
| 2026-05-01 10:11 | -2.08781 | 110.72621 | 33826 ft | 490 kts | 304° |
| 2026-05-01 10:11 | -2.05036 | 110.66940 | 33829 ft | 489 kts | 304° |
| 2026-05-01 10:12 | -2.01298 | 110.61271 | 33831 ft | 488 kts | 304° |
| 2026-05-01 10:13 | -1.95693 | 110.52772 | 33828 ft | 488 kts | 304° |
| 2026-05-01 10:13 | -1.91959 | 110.47112 | 33831 ft | 488 kts | 304° |
| 2026-05-01 10:14 | -1.86349 | 110.38607 | 33828 ft | 489 kts | 304° |
| 2026-05-01 10:14 | -1.82606 | 110.32934 | 33827 ft | 489 kts | 304° |
| 2026-05-01 10:15 | -1.78863 | 110.27261 | 33831 ft | 489 kts | 304° |
| 2026-05-01 10:15 | -1.75118 | 110.21584 | 33830 ft | 489 kts | 304° |
| 2026-05-01 10:16 | -1.71373 | 110.15908 | 33828 ft | 489 kts | 304° |
| 2026-05-01 10:17 | -1.65754 | 110.07394 | 33827 ft | 489 kts | 304° |
| 2026-05-01 10:17 | -1.60142 | 109.98887 | 33833 ft | 489 kts | 304° |
| 2026-05-01 10:18 | -1.54534 | 109.90383 | 33833 ft | 488 kts | 304° |
| 2026-05-01 10:19 | -1.50795 | 109.84714 | 33833 ft | 488 kts | 304° |
| 2026-05-01 10:19 | -1.47057 | 109.79047 | 33836 ft | 488 kts | 304° |
| 2026-05-01 10:20 | -1.41454 | 109.70552 | 33832 ft | 488 kts | 304° |
| 2026-05-01 10:20 | -1.37722 | 109.64895 | 33836 ft | 487 kts | 304° |
| 2026-05-01 10:21 | -1.32151 | 109.56452 | 33836 ft | 487 kts | 304° |
| 2026-05-01 10:22 | -1.26556 | 109.47972 | 33839 ft | 487 kts | 304° |
| 2026-05-01 10:23 | -1.20965 | 109.39499 | 33838 ft | 486 kts | 304° |
| 2026-05-01 10:23 | -1.15386 | 109.31045 | 33842 ft | 485 kts | 304° |
| 2026-05-01 10:24 | -1.07957 | 109.19786 | 33844 ft | 485 kts | 304° |
| 2026-05-01 10:25 | -1.00525 | 109.08524 | 33846 ft | 485 kts | 304° |
| 2026-05-01 10:26 | -0.96818 | 109.02886 | 33842 ft | 485 kts | 304° |
| 2026-05-01 10:27 | -0.89422 | 108.91627 | 33846 ft | 484 kts | 304° |
| 2026-05-01 10:28 | -0.83885 | 108.83180 | 33847 ft | 484 kts | 304° |
| 2026-05-01 10:28 | -0.78364 | 108.74721 | 33845 ft | 485 kts | 304° |
| 2026-05-01 10:29 | -0.72835 | 108.66255 | 33847 ft | 485 kts | 304° |
| 2026-05-01 10:30 | -0.65451 | 108.54948 | 33851 ft | 486 kts | 304° |
| 2026-05-01 10:31 | -0.58029 | 108.43650 | 33850 ft | 486 kts | 305° |
| 2026-05-01 10:32 | -0.52430 | 108.35175 | 33853 ft | 488 kts | 304° |
| 2026-05-01 10:33 | -0.44951 | 108.23835 | 33850 ft | 489 kts | 304° |
| 2026-05-01 10:34 | -0.39337 | 108.15320 | 33849 ft | 489 kts | 304° |
| 2026-05-01 10:34 | -0.35592 | 108.09641 | 33849 ft | 489 kts | 304° |
| 2026-05-01 10:35 | -0.30608 | 108.02083 | 33849 ft | 489 kts | 304° |
| 2026-05-01 10:35 | -0.26862 | 107.96403 | 33849 ft | 489 kts | 304° |
| 2026-05-01 10:36 | -0.21248 | 107.87890 | 33849 ft | 489 kts | 304° |
| 2026-05-01 10:37 | -0.17507 | 107.82217 | 33852 ft | 489 kts | 304° |
| 2026-05-01 10:37 | -0.11897 | 107.73708 | 33849 ft | 489 kts | 304° |
| 2026-05-01 10:38 | -0.08141 | 107.68044 | 33850 ft | 489 kts | 305° |
| 2026-05-01 10:38 | -0.04368 | 107.62394 | 33850 ft | 489 kts | 305° |
| 2026-05-01 10:39 | -0.00596 | 107.56741 | 33850 ft | 489 kts | 305° |
| 2026-05-01 10:39 | 0.03175 | 107.51084 | 33843 ft | 490 kts | 305° |
| 2026-05-01 10:40 | 0.06950 | 107.45417 | 33852 ft | 490 kts | 305° |
| 2026-05-01 10:40 | 0.10732 | 107.39741 | 33852 ft | 491 kts | 305° |
| 2026-05-01 10:41 | 0.14520 | 107.34055 | 33852 ft | 492 kts | 304° |
| 2026-05-01 10:42 | 0.20219 | 107.25501 | 33852 ft | 494 kts | 304° |
| 2026-05-01 10:42 | 0.24027 | 107.19785 | 33852 ft | 494 kts | 304° |
| 2026-05-01 10:43 | 0.27834 | 107.14070 | 33852 ft | 494 kts | 304° |
| 2026-05-01 10:43 | 0.31638 | 107.08359 | 33852 ft | 494 kts | 304° |
| 2026-05-01 10:44 | 0.35443 | 107.02646 | 33856 ft | 493 kts | 304° |
| 2026-05-01 10:44 | 0.39231 | 106.96959 | 33848 ft | 491 kts | 304° |
| 2026-05-01 10:45 | 0.42250 | 106.90872 | 33854 ft | 490 kts | 288° |
| 2026-05-01 10:45 | 0.43730 | 106.84230 | 33852 ft | 490 kts | 281° |
| 2026-05-01 10:46 | 0.44988 | 106.77542 | 33850 ft | 490 kts | 281° |
| 2026-05-01 10:46 | 0.46281 | 106.70858 | 33855 ft | 490 kts | 281° |
| 2026-05-01 10:47 | 0.47613 | 106.64184 | 33853 ft | 490 kts | 282° |
| 2026-05-01 10:47 | 0.48962 | 106.57499 | 33856 ft | 491 kts | 282° |
| 2026-05-01 10:48 | 0.50312 | 106.50807 | 33855 ft | 492 kts | 282° |
| 2026-05-01 10:48 | 0.51660 | 106.44111 | 33855 ft | 492 kts | 282° |
| 2026-05-01 10:49 | 0.53007 | 106.37413 | 33857 ft | 492 kts | 282° |
| 2026-05-01 10:49 | 0.54354 | 106.30714 | 33857 ft | 492 kts | 283° |
| 2026-05-01 10:50 | 0.55701 | 106.24017 | 33857 ft | 492 kts | 283° |
| 2026-05-01 10:50 | 0.57049 | 106.17317 | 33860 ft | 492 kts | 283° |
| 2026-05-01 10:51 | 0.58395 | 106.10623 | 33863 ft | 492 kts | 283° |
| 2026-05-01 10:51 | 0.59742 | 106.03925 | 33859 ft | 492 kts | 283° |
| 2026-05-01 10:52 | 0.61088 | 105.97233 | 33872 ft | 490 kts | 282° |
| 2026-05-01 10:52 | 0.62425 | 105.90583 | 33855 ft | 487 kts | 282° |
| 2026-05-01 10:53 | 0.63755 | 105.83969 | 33859 ft | 485 kts | 282° |
| 2026-05-01 10:53 | 0.65081 | 105.77371 | 33863 ft | 483 kts | 282° |
| 2026-05-01 10:54 | 0.66403 | 105.70796 | 33864 ft | 483 kts | 282° |
| 2026-05-01 10:54 | 0.67725 | 105.64217 | 33865 ft | 483 kts | 282° |
| 2026-05-01 10:55 | 0.69048 | 105.57633 | 33861 ft | 484 kts | 282° |
| 2026-05-01 10:55 | 0.70372 | 105.51043 | 33865 ft | 484 kts | 282° |
| 2026-05-01 10:56 | 0.71701 | 105.44445 | 33864 ft | 485 kts | 282° |
| 2026-05-01 10:56 | 0.73031 | 105.37840 | 33862 ft | 485 kts | 282° |
| 2026-05-01 10:57 | 0.74352 | 105.31280 | 33867 ft | 485 kts | 282° |
| 2026-05-01 10:57 | 0.75682 | 105.24671 | 33856 ft | 486 kts | 282° |
| 2026-05-01 10:58 | 0.77016 | 105.18046 | 33864 ft | 487 kts | 282° |
| 2026-05-01 10:58 | 0.78351 | 105.11413 | 33860 ft | 487 kts | 282° |
| 2026-05-01 10:59 | 0.79688 | 105.04768 | 33863 ft | 488 kts | 282° |
| 2026-05-01 10:59 | 0.81025 | 104.98121 | 33862 ft | 488 kts | 282° |
| 2026-05-01 11:00 | 0.82362 | 104.91474 | 33864 ft | 488 kts | 282° |
| 2026-05-01 11:00 | 0.83703 | 104.84807 | 33867 ft | 490 kts | 282° |
| 2026-05-01 11:01 | 0.85047 | 104.78126 | 33869 ft | 491 kts | 282° |
| 2026-05-01 11:01 | 0.86395 | 104.71426 | 33860 ft | 492 kts | 282° |
| 2026-05-01 11:02 | 0.87743 | 104.64721 | 33859 ft | 492 kts | 282° |
| 2026-05-01 11:02 | 0.89091 | 104.58015 | 33857 ft | 492 kts | 282° |
| 2026-05-01 11:03 | 0.90569 | 104.51346 | 33851 ft | 491 kts | 288° |
| 2026-05-01 11:03 | 0.93313 | 104.45121 | 33858 ft | 490 kts | 297° |
| 2026-05-01 11:04 | 0.96348 | 104.39029 | 33856 ft | 490 kts | 297° |
| 2026-05-01 11:04 | 0.99328 | 104.32909 | 33858 ft | 490 kts | 296° |
| 2026-05-01 11:05 | 1.02267 | 104.26771 | 33857 ft | 490 kts | 296° |
| 2026-05-01 11:05 | 1.05205 | 104.20634 | 33859 ft | 490 kts | 297° |
| 2026-05-01 11:06 | 1.08172 | 104.14489 | 33856 ft | 492 kts | 297° |
| 2026-05-01 11:06 | 1.11164 | 104.08335 | 33860 ft | 493 kts | 297° |
| 2026-05-01 11:07 | 1.15651 | 103.99088 | 33853 ft | 493 kts | 297° |
| 2026-05-01 11:07 | 1.18640 | 103.92920 | 33855 ft | 493 kts | 297° |
| 2026-05-01 11:08 | 1.21834 | 103.86878 | 33843 ft | 491 kts | 308° |
| 2026-05-01 11:08 | 1.26710 | 103.82220 | 33855 ft | 484 kts | 328° |
| 2026-05-01 11:09 | 1.29695 | 103.80719 | 33844 ft | 479 kts | 344° |
| 2026-05-01 11:09 | 1.35974 | 103.78509 | 33861 ft | 480 kts | 336° |
| 2026-05-01 11:10 | 1.44841 | 103.73811 | 33850 ft | 481 kts | 334° |
| 2026-05-01 11:10 | 1.50838 | 103.70874 | 33853 ft | 478 kts | 341° |
| 2026-05-01 11:11 | 1.57167 | 103.68934 | 33854 ft | 475 kts | 345° |
| 2026-05-01 11:11 | 1.63417 | 103.66813 | 33813 ft | 477 kts | 333° |
| 2026-05-01 11:12 | 1.66113 | 103.64883 | 33838 ft | 480 kts | 319° |
| 2026-05-01 11:12 | 1.68312 | 103.62368 | 33827 ft | 483 kts | 305° |
| 2026-05-01 11:12 | 1.71353 | 103.56360 | 33836 ft | 485 kts | 297° |
| 2026-05-01 11:13 | 1.74229 | 103.50254 | 33836 ft | 486 kts | 297° |
| 2026-05-01 11:13 | 1.77184 | 103.44169 | 33847 ft | 487 kts | 297° |
| 2026-05-01 11:14 | 1.80180 | 103.38090 | 33862 ft | 488 kts | 297° |
| 2026-05-01 11:14 | 1.83180 | 103.31997 | 33862 ft | 489 kts | 297° |
| 2026-05-01 11:15 | 1.86177 | 103.25901 | 33861 ft | 489 kts | 297° |
| 2026-05-01 11:15 | 1.89167 | 103.19804 | 33860 ft | 488 kts | 297° |
| 2026-05-01 11:16 | 1.92144 | 103.13729 | 33860 ft | 486 kts | 297° |
| 2026-05-01 11:16 | 1.95125 | 103.07645 | 33873 ft | 489 kts | 297° |
| 2026-05-01 11:17 | 1.97615 | 103.02565 | 33871 ft | 490 kts | 297° |
| 2026-05-01 11:17 | 2.00621 | 102.96430 | 33254 ft | 494 kts | 297° |
| 2026-05-01 11:18 | 2.02122 | 102.93364 | 32542 ft | 488 kts | 297° |
| 2026-05-01 11:18 | 2.03620 | 102.90308 | 31821 ft | 491 kts | 297° |
| 2026-05-01 11:18 | 2.05128 | 102.87228 | 31121 ft | 494 kts | 297° |
| 2026-05-01 11:18 | 2.06636 | 102.84134 | 30440 ft | 496 kts | 297° |
| 2026-05-01 11:19 | 2.08143 | 102.81026 | 29738 ft | 498 kts | 297° |
| 2026-05-01 11:19 | 2.09653 | 102.77909 | 28956 ft | 500 kts | 297° |
| 2026-05-01 11:19 | 2.11175 | 102.74769 | 28194 ft | 504 kts | 297° |
| 2026-05-01 11:19 | 2.12706 | 102.71611 | 27454 ft | 507 kts | 297° |
| 2026-05-01 11:20 | 2.14247 | 102.68433 | 26735 ft | 509 kts | 297° |
| 2026-05-01 11:20 | 2.15793 | 102.65248 | 26029 ft | 510 kts | 297° |
| 2026-05-01 11:20 | 2.17366 | 102.62063 | 25339 ft | 511 kts | 298° |
| 2026-05-01 11:20 | 2.19027 | 102.58936 | 24665 ft | 506 kts | 300° |
| 2026-05-01 11:21 | 2.20714 | 102.55885 | 24005 ft | 497 kts | 300° |
| 2026-05-01 11:21 | 2.22384 | 102.52899 | 23342 ft | 485 kts | 300° |
| 2026-05-01 11:21 | 2.23987 | 102.50021 | 22565 ft | 463 kts | 300° |
| 2026-05-01 11:21 | 2.25508 | 102.47268 | 21808 ft | 442 kts | 300° |
| 2026-05-01 11:22 | 2.26956 | 102.44628 | 21073 ft | 425 kts | 300° |
| 2026-05-01 11:22 | 2.28346 | 102.42081 | 20369 ft | 411 kts | 300° |
| 2026-05-01 11:22 | 2.29696 | 102.39603 | 19665 ft | 399 kts | 300° |
| 2026-05-01 11:22 | 2.31003 | 102.37202 | 18984 ft | 389 kts | 300° |
| 2026-05-01 11:23 | 2.32280 | 102.34855 | 18321 ft | 380 kts | 300° |
| 2026-05-01 11:23 | 2.33530 | 102.32558 | 17590 ft | 373 kts | 300° |
| 2026-05-01 11:23 | 2.34758 | 102.30302 | 16842 ft | 366 kts | 300° |
| 2026-05-01 11:23 | 2.35964 | 102.28086 | 16113 ft | 360 kts | 300° |
| 2026-05-01 11:24 | 2.37153 | 102.25902 | 15406 ft | 354 kts | 300° |
| 2026-05-01 11:24 | 2.38322 | 102.23753 | 14707 ft | 349 kts | 300° |
| 2026-05-01 11:24 | 2.40616 | 102.19539 | 13317 ft | 340 kts | 300° |
| 2026-05-01 11:25 | 2.41741 | 102.17471 | 12564 ft | 336 kts | 300° |
| 2026-05-01 11:25 | 2.43950 | 102.13412 | 11118 ft | 328 kts | 300° |
| 2026-05-01 11:25 | 2.45035 | 102.11418 | 10420 ft | 325 kts | 300° |
| 2026-05-01 11:26 | 2.46107 | 102.09448 | 9732 ft | 321 kts | 299° |
| 2026-05-01 11:26 | 2.48218 | 102.05565 | 8248 ft | 314 kts | 299° |
| 2026-05-01 11:26 | 2.49256 | 102.03657 | 7575 ft | 310 kts | 299° |
| 2026-05-01 11:27 | 2.50263 | 102.01806 | 7165 ft | 297 kts | 299° |
| 2026-05-01 11:27 | 2.51229 | 102.00028 | 6795 ft | 288 kts | 300° |
| 2026-05-01 11:27 | 2.52056 | 101.98248 | 6419 ft | 287 kts | 284° |
| 2026-05-01 11:27 | 2.52083 | 101.96287 | 6087 ft | 283 kts | 257° |
| 2026-05-01 11:28 | 2.51326 | 101.94506 | 5815 ft | 276 kts | 237° |
| 2026-05-01 11:28 | 2.50262 | 101.92931 | 5688 ft | 272 kts | 234° |
| 2026-05-01 11:28 | 2.49185 | 101.91381 | 5606 ft | 271 kts | 234° |
| 2026-05-01 11:29 | 2.48017 | 101.87933 | 5436 ft | 272 kts | 281° |
| 2026-05-01 11:29 | 2.48751 | 101.86230 | 5192 ft | 266 kts | 307° |
| 2026-05-01 11:29 | 2.51205 | 101.83552 | 4570 ft | 256 kts | 316° |
| 2026-05-01 11:30 | 2.52441 | 101.82283 | 4238 ft | 253 kts | 316° |
| 2026-05-01 11:30 | 2.53773 | 101.81146 | 3910 ft | 249 kts | 327° |
| 2026-05-01 11:30 | 2.55171 | 101.80214 | 3581 ft | 233 kts | 329° |
| 2026-05-01 11:30 | 2.56479 | 101.79361 | 3309 ft | 216 kts | 328° |
| 2026-05-01 11:31 | 2.57693 | 101.78558 | 3033 ft | 203 kts | 328° |
| 2026-05-01 11:31 | 2.58841 | 101.77791 | 2789 ft | 194 kts | 329° |
| 2026-05-01 11:31 | 2.59945 | 101.77052 | 2532 ft | 187 kts | 328° |
| 2026-05-01 11:31 | 2.60995 | 101.76347 | 2304 ft | 177 kts | 328° |
| 2026-05-01 11:32 | 2.61978 | 101.75690 | 2076 ft | 163 kts | 327° |
| 2026-05-01 11:32 | 2.62881 | 101.75084 | 1873 ft | 151 kts | 327° |
| 2026-05-01 11:32 | 2.63716 | 101.74524 | 1696 ft | 140 kts | 326° |
| 2026-05-01 11:32 | 2.64500 | 101.73999 | 1528 ft | 134 kts | 326° |
| 2026-05-01 11:33 | 2.65276 | 101.73479 | 1353 ft | 134 kts | 326° |
| 2026-05-01 11:33 | 2.66048 | 101.72963 | 1177 ft | 133 kts | 326° |
| 2026-05-01 11:33 | 2.66816 | 101.72448 | 1014 ft | 133 kts | 327° |
| 2026-05-01 11:33 | 2.67582 | 101.71934 | 858 ft | 133 kts | 327° |
| 2026-05-01 11:34 | 2.68352 | 101.71417 | 710 ft | 133 kts | 327° |
| 2026-05-01 11:34 | 2.69120 | 101.70903 | 559 ft | 134 kts | 327° |
| 2026-05-01 11:34 | 2.69892 | 101.70385 | 345 ft | 133 kts | 327° |
| 2026-05-01 11:34 | 2.70626 | 101.69890 | 127 ft | 121 kts | 326° |
| 2026-05-01 11:35 | 2.71288 | 101.69451 | 38 ft | 106 kts | 326° |
| 2026-05-01 11:35 | 2.71798 | 101.69107 | 39 ft | 71 kts | 325° |
| 2026-05-01 11:35 | 2.72105 | 101.68898 | 37 ft | 36 kts | 326° |
| 2026-05-01 11:35 | 2.72258 | 101.68795 | 36 ft | 24 kts | 326° |
| 2026-05-01 11:36 | 2.72387 | 101.68714 | 36 ft | 21 kts | 335° |
| 2026-05-01 11:36 | 2.72556 | 101.68642 | 37 ft | 30 kts | 340° |
| 2026-05-01 11:36 | 2.72755 | 101.68610 | 38 ft | 28 kts | 353° |
| 2026-05-01 11:36 | 2.72931 | 101.68554 | 38 ft | 26 kts | 323° |
| 2026-05-01 11:37 | 2.73076 | 101.68456 | 38 ft | 24 kts | 327° |
| 2026-05-01 11:37 | 2.73212 | 101.68368 | 37 ft | 23 kts | 327° |
| 2026-05-01 11:37 | 2.73317 | 101.68409 | 39 ft | 27 kts | 57° |
| 2026-05-01 11:37 | 2.73433 | 101.68579 | 41 ft | 29 kts | 54° |
| 2026-05-01 11:38 | 2.73543 | 101.68739 | 41 ft | 27 kts | 56° |
| 2026-05-01 11:38 | 2.73645 | 101.68889 | 40 ft | 25 kts | 56° |
| 2026-05-01 11:38 | 2.73740 | 101.69027 | 41 ft | 23 kts | 55° |
| 2026-05-01 11:38 | 2.73824 | 101.69161 | 41 ft | 22 kts | 60° |
| 2026-05-01 11:39 | 2.73915 | 101.69285 | 41 ft | 22 kts | 57° |
| 2026-05-01 11:39 | 2.73993 | 101.69412 | 41 ft | 21 kts | 56° |
| 2026-05-01 11:39 | 2.74075 | 101.69532 | 48 ft | 21 kts | 55° |
| 2026-05-01 11:39 | 2.74155 | 101.69648 | 53 ft | 20 kts | 55° |
| 2026-05-01 11:40 | 2.74233 | 101.69760 | 60 ft | 19 kts | 55° |
| 2026-05-01 11:40 | 2.74309 | 101.69868 | 57 ft | 19 kts | 55° |
| 2026-05-01 11:40 | 2.74382 | 101.69973 | 56 ft | 18 kts | 55° |
| 2026-05-01 11:40 | 2.74452 | 101.70074 | 55 ft | 17 kts | 55° |
| 2026-05-01 11:41 | 2.74519 | 101.70172 | 63 ft | 17 kts | 57° |
| 2026-05-01 11:41 | 2.74610 | 101.70219 | 64 ft | 16 kts | 339° |
| 2026-05-01 11:41 | 2.74698 | 101.70154 | 68 ft | 16 kts | 326° |
| 2026-05-01 11:41 | 2.74788 | 101.70108 | 66 ft | 10 kts | 360° |
| 2026-05-01 11:42 | 2.74836 | 101.70162 | 50 ft | 15 kts | 53° |
| 2026-05-01 11:42 | 2.74908 | 101.70261 | 67 ft | 15 kts | 57° |
| 2026-05-01 11:42 | 2.74909 | 101.70329 | 72 ft | 9 kts | 138° |
| 2026-05-01 11:42 | 2.74880 | 101.70351 | 69 ft | 3 kts | 147° |
| 2026-05-01 11:43 | 2.74875 | 101.70355 | 68 ft | 1 kts | 147° |
| 2026-05-01 11:43 | 2.74874 | 101.70355 | 68 ft | 0 kts | 147° |